Time;durP1;ratioP1;P1;durP2;ratioP2;P2;SDS_P1;SDS_P2;PMS_P1;PMS_P2;Temp;Humidity;BMP_temperature;BMP_pressure;BME280_temperature;BME280_humidity;BME280_pressure;Samples;Min_cycle;Max_cycle;Signal;HPM_P1;HPM_P2
2021/11/01 00:02:08;;;;;;;;;;;9.80;99.90;;;;;;5042994;28;20004;-82
2021/11/01 00:04:33;;;;;;;;;;;9.80;99.90;;;;;;5046623;28;20311;-79
2021/11/01 00:06:59;;;;;;;;;;;9.80;99.90;;;;;;5042587;28;20352;-82
2021/11/01 00:09:28;;;;;;;;;;;9.80;99.90;;;;;;5042381;28;20315;-78
2021/11/01 00:11:54;;;;;;;;;;;9.80;99.90;;;;;;5042002;28;20347;-79
2021/11/01 00:14:19;;;;;;;;;;;9.80;99.90;;;;;;5043554;28;20004;-78
2021/11/01 00:16:45;;;;;;;;;;;9.90;99.90;;;;;;5044831;28;20253;-79
2021/11/01 00:19:10;;;;;;;;;;;9.90;99.90;;;;;;5043108;28;20334;-79
2021/11/01 00:21:36;;;;;;;;;;;9.80;99.90;;;;;;5040435;28;20771;-78
2021/11/01 00:24:02;;;;;;;;;;;9.80;99.90;;;;;;5042758;28;19923;-78
2021/11/01 00:26:27;;;;;;;;;;;9.80;99.90;;;;;;5042952;28;19928;-78
2021/11/01 00:28:53;;;;;;;;;;;9.80;99.90;;;;;;5041317;28;20350;-79
2021/11/01 00:31:19;;;;;;;;;;;9.80;99.90;;;;;;5041387;28;19913;-77
2021/11/01 00:33:44;;;;;;;;;;;9.80;99.90;;;;;;5041603;28;19921;-77
2021/11/01 00:36:10;;;;;;;;;;;9.80;99.90;;;;;;5045003;28;19921;-77
2021/11/01 00:38:35;;;;;;;;;;;9.80;99.90;;;;;;5043582;28;19913;-79
2021/11/01 00:41:01;;;;;;;;;;;9.80;99.90;;;;;;5040811;28;19913;-78
2021/11/01 00:43:26;;;;;;;;;;;9.70;99.90;;;;;;5044240;28;20007;-77
2021/11/01 00:45:52;;;;;;;;;;;9.80;99.90;;;;;;5041167;28;19920;-78
2021/11/01 00:48:17;;;;;;;;;;;9.70;99.90;;;;;;5039254;28;19920;-78
2021/11/01 00:50:45;;;;;;;;;;;9.70;99.90;;;;;;5036694;28;19959;-77
2021/11/01 00:53:10;;;;;;;;;;;9.80;99.90;;;;;;5043814;28;19917;-79
2021/11/01 00:55:50;;;;;;;;;;;9.70;99.90;;;;;;5042722;28;19912;-79
2021/11/01 00:58:16;;;;;;;;;;;9.70;99.90;;;;;;5040096;28;20248;-79
2021/11/01 01:00:42;;;;;;;;;;;9.70;99.90;;;;;;5043567;28;19913;-77
2021/11/01 01:03:09;;;;;;;;;;;9.70;99.90;;;;;;5042504;28;19987;-77
2021/11/01 01:05:35;;;;;;;;;;;9.60;99.90;;;;;;5037347;28;19964;-78
2021/11/01 01:08:01;;;;;;;;;;;9.60;99.90;;;;;;5041409;28;19960;-78
2021/11/01 01:10:26;;;;;;;;;;;9.60;99.90;;;;;;5041360;28;20219;-81
2021/11/01 01:12:52;;;;;;;;;;;9.60;99.90;;;;;;5044446;28;19933;-79
2021/11/01 01:15:23;;;;;;;;;;;9.60;99.90;;;;;;5043448;28;19920;-78
2021/11/01 01:17:50;;;;;;;;;;;9.60;99.90;;;;;;5041588;28;19931;-78
2021/11/01 01:20:18;;;;;;;;;;;9.60;99.90;;;;;;5043199;28;19917;-78
2021/11/01 01:22:44;;;;;;;;;;;9.50;99.90;;;;;;5041637;28;20318;-78
2021/11/01 01:25:29;;;;;;;;;;;9.50;99.90;;;;;;5042174;28;19913;-78
2021/11/01 01:28:09;;;;;;;;;;;9.60;99.90;;;;;;5040326;28;19913;-78
2021/11/01 01:30:35;;;;;;;;;;;9.50;99.90;;;;;;5034916;28;19917;-77
2021/11/01 01:33:01;;;;;;;;;;;9.50;99.90;;;;;;5039620;28;20015;-78
2021/11/01 01:35:28;;;;;;;;;;;9.40;99.90;;;;;;5039528;28;20579;-78
2021/11/01 01:37:54;;;;;;;;;;;9.40;99.90;;;;;;5040003;28;19924;-78
2021/11/01 01:40:20;;;;;;;;;;;9.40;99.90;;;;;;5039030;28;19917;-79
2021/11/01 01:42:45;;;;;;;;;;;9.30;99.90;;;;;;5040721;28;20214;-78
2021/11/01 01:45:12;;;;;;;;;;;9.40;99.90;;;;;;5037335;28;20004;-78
2021/11/01 01:47:40;;;;;;;;;;;9.40;99.90;;;;;;5045323;28;19917;-76
2021/11/01 01:50:06;;;;;;;;;;;9.40;99.90;;;;;;5045823;28;19913;-80
2021/11/01 01:52:32;;;;;;;;;;;9.40;99.90;;;;;;5043261;28;20278;-77
2021/11/01 01:54:58;;;;;;;;;;;9.40;99.90;;;;;;5046958;28;19917;-79
2021/11/01 01:57:24;;;;;;;;;;;9.30;99.90;;;;;;5047472;28;20370;-78
2021/11/01 01:59:50;;;;;;;;;;;9.30;99.90;;;;;;5046374;28;20220;-77
2021/11/01 02:02:15;;;;;;;;;;;9.40;99.90;;;;;;5046169;28;19917;-80
2021/11/01 02:04:42;;;;;;;;;;;9.40;99.90;;;;;;5045762;28;19964;-78
2021/11/01 02:07:17;;;;;;;;;;;9.30;99.90;;;;;;5046482;28;20381;-82
2021/11/01 02:09:43;;;;;;;;;;;9.40;99.90;;;;;;5043104;28;19913;-80
2021/11/01 02:12:10;;;;;;;;;;;9.30;99.90;;;;;;5045004;28;20228;-79
2021/11/01 02:14:56;;;;;;;;;;;9.30;99.90;;;;;;5046641;28;19920;-79
2021/11/01 02:17:24;;;;;;;;;;;9.30;99.90;;;;;;5047256;28;20264;-81
2021/11/01 02:19:51;;;;;;;;;;;9.30;99.90;;;;;;5046050;28;19913;-79
2021/11/01 02:22:32;;;;;;;;;;;9.20;99.90;;;;;;5044932;28;19921;-81
2021/11/01 02:25:11;;;;;;;;;;;9.20;99.90;;;;;;5045990;28;19917;-80
2021/11/01 02:27:39;;;;;;;;;;;9.20;99.90;;;;;;5042917;28;19928;-80
2021/11/01 02:30:06;;;;;;;;;;;9.20;99.90;;;;;;5044053;28;19952;-81
2021/11/01 02:32:33;;;;;;;;;;;9.20;99.90;;;;;;5042542;28;20320;-80
2021/11/01 02:34:59;;;;;;;;;;;9.20;99.90;;;;;;5045856;28;19982;-77
2021/11/01 02:37:24;;;;;;;;;;;9.10;99.90;;;;;;5045951;28;20325;-80
2021/11/01 02:39:52;;;;;;;;;;;9.20;99.90;;;;;;5043264;28;19923;-80
2021/11/01 02:42:18;;;;;;;;;;;9.10;99.90;;;;;;5043366;28;19917;-79
2021/11/01 02:44:51;;;;;;;;;;;9.10;99.90;;;;;;5045096;28;20070;-80
2021/11/01 02:47:16;;;;;;;;;;;9.10;99.90;;;;;;5043283;28;20239;-79
2021/11/01 02:49:42;;;;;;;;;;;9.10;99.90;;;;;;5039080;28;19917;-77
2021/11/01 02:52:07;;;;;;;;;;;9.10;99.90;;;;;;5043387;28;19944;-78
2021/11/01 02:54:33;;;;;;;;;;;9.10;99.90;;;;;;5043581;28;19921;-79
2021/11/01 02:56:59;;;;;;;;;;;9.00;99.90;;;;;;5042232;28;20058;-78
2021/11/01 02:59:26;;;;;;;;;;;9.00;99.90;;;;;;5042791;28;20003;-80
2021/11/01 03:01:52;;;;;;;;;;;9.00;99.90;;;;;;5045824;28;19921;-79
2021/11/01 03:04:18;;;;;;;;;;;9.10;99.90;;;;;;5045243;28;19995;-78
2021/11/01 03:06:43;;;;;;;;;;;9.10;99.90;;;;;;5046042;28;19928;-78
2021/11/01 03:09:09;;;;;;;;;;;9.10;99.90;;;;;;5044288;28;19921;-77
2021/11/01 03:11:35;;;;;;;;;;;9.10;99.90;;;;;;5046161;28;19925;-77
2021/11/01 03:14:01;;;;;;;;;;;9.20;99.90;;;;;;5042008;28;19919;-77
2021/11/01 03:16:27;;;;;;;;;;;9.20;99.90;;;;;;5042868;28;20371;-79
2021/11/01 03:19:00;;;;;;;;;;;9.10;99.90;;;;;;5043992;28;19944;-78
2021/11/01 03:21:26;;;;;;;;;;;9.10;99.90;;;;;;5043732;28;19914;-80
2021/11/01 03:23:52;;;;;;;;;;;9.10;99.90;;;;;;5044636;28;20296;-78
2021/11/01 03:26:21;;;;;;;;;;;9.10;99.90;;;;;;5045030;28;19913;-78
2021/11/01 03:28:51;;;;;;;;;;;9.00;99.90;;;;;;5041582;28;19921;-79
2021/11/01 03:31:17;;;;;;;;;;;9.00;99.90;;;;;;5040804;28;19918;-77
2021/11/01 03:33:43;;;;;;;;;;;9.00;99.90;;;;;;5046070;28;20213;-79
2021/11/01 03:36:09;;;;;;;;;;;9.00;99.90;;;;;;5040961;28;20019;-77
2021/11/01 03:38:37;;;;;;;;;;;9.00;99.90;;;;;;5044662;28;19928;-80
2021/11/01 03:41:10;;;;;;;;;;;9.10;99.90;;;;;;5044045;28;19917;-78
2021/11/01 03:43:53;;;;;;;;;;;9.10;99.90;;;;;;5042555;28;19920;-79
2021/11/01 03:46:26;;;;;;;;;;;9.10;99.90;;;;;;5042825;28;19924;-79
2021/11/01 03:48:53;;;;;;;;;;;9.10;99.90;;;;;;5043484;28;19913;-82
2021/11/01 03:54:02;;;;;;;;;;;9.00;99.90;;;;;;5042255;28;19917;-78
2021/11/01 03:56:30;;;;;;;;;;;8.90;99.90;;;;;;5040639;28;20013;-79
2021/11/01 03:58:55;;;;;;;;;;;8.90;99.90;;;;;;5042721;28;19924;-79
2021/11/01 04:01:22;;;;;;;;;;;8.90;99.90;;;;;;5043141;28;19913;-79
2021/11/01 04:03:48;;;;;;;;;;;8.90;99.90;;;;;;5040100;28;19917;-78
2021/11/01 04:06:16;;;;;;;;;;;8.90;99.90;;;;;;5043053;28;20261;-79
2021/11/01 04:08:42;;;;;;;;;;;8.90;99.90;;;;;;5039491;28;20024;-80
2021/11/01 04:11:07;;;;;;;;;;;8.80;99.90;;;;;;5042894;28;20318;-77
2021/11/01 04:13:34;;;;;;;;;;;8.90;99.90;;;;;;5044860;28;19913;-80
2021/11/01 04:16:10;;;;;;;;;;;8.80;99.90;;;;;;5042774;28;19917;-79
2021/11/01 04:18:49;;;;;;;;;;;8.80;99.90;;;;;;5043046;28;19917;-79
2021/11/01 04:21:14;;;;;;;;;;;8.80;99.90;;;;;;5043975;28;19958;-79
2021/11/01 04:23:40;;;;;;;;;;;8.80;99.90;;;;;;5041987;28;19916;-79
2021/11/01 04:26:05;;;;;;;;;;;8.80;99.90;;;;;;5043515;28;19961;-79
2021/11/01 04:28:32;;;;;;;;;;;8.70;99.90;;;;;;5042648;28;19950;-78
2021/11/01 04:31:06;;;;;;;;;;;8.70;99.90;;;;;;5042595;28;19928;-80
2021/11/01 04:33:33;;;;;;;;;;;8.70;99.90;;;;;;5043338;28;19925;-80
2021/11/01 04:35:58;;;;;;;;;;;8.80;99.90;;;;;;5044122;28;19912;-80
2021/11/01 04:54:21;;;;;;;;;;;8.70;99.90;;;;;;5043185;28;19920;-79
2021/11/01 04:56:46;;;;;;;;;;;8.70;99.90;;;;;;5040629;28;19928;-79
2021/11/01 04:59:12;;;;;;;;;;;8.70;99.90;;;;;;5040770;28;19917;-79
2021/11/01 05:01:45;;;;;;;;;;;8.70;99.90;;;;;;5038637;28;20318;-80
2021/11/01 05:04:15;;;;;;;;;;;8.70;99.90;;;;;;5041300;28;19920;-80
2021/11/01 05:06:51;;;;;;;;;;;8.70;99.90;;;;;;5039455;28;20339;-79
2021/11/01 05:09:22;;;;;;;;;;;8.70;99.90;;;;;;5044007;28;19928;-78
2021/11/01 05:14:15;;;;;;;;;;;8.80;99.90;;;;;;5042516;28;19921;-80
2021/11/01 05:24:14;;;;;;;;;;;8.90;99.90;;;;;;5041844;28;19916;-77
2021/11/01 05:29:11;;;;;;;;;;;8.90;99.90;;;;;;5042367;28;19914;-78
2021/11/01 05:31:47;;;;;;;;;;;8.90;99.90;;;;;;5040916;28;19916;-78
2021/11/01 05:34:17;;;;;;;;;;;8.90;99.90;;;;;;5041101;28;19979;-79
2021/11/01 05:36:43;;;;;;;;;;;8.90;99.90;;;;;;5042393;28;19960;-80
2021/11/01 05:39:09;;;;;;;;;;;8.90;99.90;;;;;;5042895;28;20330;-79
2021/11/01 05:41:35;;;;;;;;;;;8.90;99.90;;;;;;5041272;28;19916;-78
2021/11/01 05:44:00;;;;;;;;;;;8.80;99.90;;;;;;5043593;28;19913;-79
2021/11/01 05:46:33;;;;;;;;;;;8.80;99.90;;;;;;5048280;22;20331;-80
2021/11/01 05:48:59;;;;;;;;;;;8.70;99.90;;;;;;5049368;28;19925;-79
2021/11/01 05:51:25;;;;;;;;;;;8.70;99.90;;;;;;5069051;28;19913;-80
2021/11/01 05:53:59;;;;;;;;;;;8.70;99.90;;;;;;5059496;28;19920;-81
2021/11/01 06:04:03;;;;;;;;;;;8.60;99.90;;;;;;5052763;28;19940;-79
2021/11/01 06:14:43;;;;;;;;;;;8.60;99.90;;;;;;5052446;28;19974;-78
2021/11/01 06:17:09;;;;;;;;;;;8.60;99.90;;;;;;5049316;28;19924;-78
2021/11/01 06:19:34;;;;;;;;;;;8.60;99.90;;;;;;5051414;28;20192;-79
2021/11/01 06:22:00;;;;;;;;;;;8.60;99.90;;;;;;5049783;28;20243;-78
2021/11/01 06:26:51;;;;;;;;;;;8.60;99.90;;;;;;5050075;28;19995;-78
2021/11/01 06:29:19;;;;;;;;;;;8.70;99.90;;;;;;5053231;28;20273;-77
2021/11/01 06:31:56;;;;;;;;;;;8.70;99.90;;;;;;5051951;28;20330;-78
2021/11/01 06:34:36;;;;;;;;;;;8.60;99.90;;;;;;5054451;28;19928;-78
2021/11/01 06:39:56;;;;;;;;;;;8.60;99.90;;;;;;5054189;28;20006;-79
2021/11/01 06:42:28;;;;;;;;;;;8.50;99.90;;;;;;5056560;28;19928;-78
2021/11/01 06:51:11;;;;;;;;;;;8.50;99.90;;;;;;5053560;28;19928;-79
2021/11/01 06:53:50;;;;;;;;;;;8.60;99.90;;;;;;5049556;28;19916;-79
2021/11/01 06:56:02;;;;;;;;;;;8.60;99.90;;;;;;5056152;28;20304;-78
2021/11/01 07:20:30;;;;;;;;;;;8.70;99.90;;;;;;5025629;28;19948;-79
2021/11/01 08:23:31;;;;;;;;;;;9.80;99.90;;;;;;5038348;28;19924;-78
2021/11/01 08:29:18;;;;;;;;;;;9.90;99.90;;;;;;5031683;28;19924;-80
2021/11/01 08:37:17;;;;;;;;;;;9.90;99.90;;;;;;5029597;28;19968;-79
2021/11/01 08:45:23;;;;;;;;;;;10.10;99.90;;;;;;5028426;28;20004;-79
2021/11/01 09:01:47;;;;;;;;;;;10.20;99.90;;;;;;5034816;28;19986;-78
2021/11/01 09:06:49;;;;;;;;;;;10.30;99.90;;;;;;5025312;28;19928;-77
2021/11/01 09:20:34;;;;;;;;;;;10.40;99.90;;;;;;4977676;28;19997;-79
2021/11/01 09:25:51;;;;;;;;;;;10.50;99.90;;;;;;4978422;28;19922;-80
2021/11/01 09:43:32;;;;;;;;;;;10.90;99.90;;;;;;4977311;28;20048;-85
2021/11/01 09:45:59;;;;;;;;;;;10.90;99.90;;;;;;4975692;28;19956;-80
2021/11/01 09:48:24;;;;;;;;;;;10.90;99.90;;;;;;4993069;28;19968;-82
2021/11/01 09:50:51;;;;;;;;;;;11.00;99.90;;;;;;4999300;28;19925;-78
2021/11/01 09:53:21;;;;;;;;;;;11.00;99.90;;;;;;5036516;28;19972;-80
2021/11/01 09:55:48;;;;;;;;;;;11.00;99.90;;;;;;5037268;28;19928;-83
2021/11/01 10:01:00;;;;;;;;;;;11.20;99.90;;;;;;5035681;28;19928;-80
2021/11/01 10:03:32;;;;;;;;;;;11.10;99.90;;;;;;5039956;28;19920;-83
2021/11/01 10:05:59;;;;;;;;;;;11.20;99.90;;;;;;5040168;28;19928;-82
2021/11/01 10:08:25;;;;;;;;;;;11.30;99.90;;;;;;5049117;28;20059;-84
2021/11/01 10:10:51;;;;;;;;;;;11.30;99.90;;;;;;5042581;28;19921;-84
2021/11/01 10:13:17;;;;;;;;;;;11.30;99.90;;;;;;5047690;28;19920;-78
2021/11/01 10:18:28;;;;;;;;;;;11.40;99.90;;;;;;5038556;28;19935;-80
2021/11/01 10:20:56;;;;;;;;;;;11.40;99.90;;;;;;5040713;28;19932;-80
2021/11/01 10:23:34;;;;;;;;;;;11.40;99.90;;;;;;5061631;28;19923;-83
2021/11/01 10:26:05;;;;;;;;;;;11.40;99.90;;;;;;5051955;28;19931;-83
2021/11/01 10:28:31;;;;;;;;;;;11.40;99.90;;;;;;5039065;28;19921;-86
2021/11/01 10:31:21;;;;;;;;;;;11.50;99.90;;;;;;5042349;28;20366;-81
2021/11/01 10:33:47;;;;;;;;;;;11.50;99.90;;;;;;5033975;28;19924;-82
2021/11/01 10:36:26;;;;;;;;;;;11.60;99.90;;;;;;5057155;28;19920;-83
2021/11/01 10:38:56;;;;;;;;;;;11.60;99.90;;;;;;5046767;28;19921;-85
2021/11/01 10:41:38;;;;;;;;;;;11.60;99.90;;;;;;5051614;28;19921;-78
2021/11/01 10:44:17;;;;;;;;;;;11.60;99.90;;;;;;5040935;28;20419;-80
2021/11/01 11:11:56;;;;;;;;;;;12.00;99.90;;;;;;5041357;28;19965;-80
2021/11/01 11:17:16;;;;;;;;;;;12.10;99.90;;;;;;5043847;28;19920;-79
2021/11/01 11:19:55;;;;;;;;;;;12.20;99.90;;;;;;5038044;28;19921;-81
2021/11/01 11:22:53;;;;;;;;;;;12.20;99.90;;;;;;5051935;28;19921;-79
2021/11/01 11:27:59;;;;;;;;;;;12.40;99.90;;;;;;5043160;28;19999;-83
2021/11/01 11:47:33;;;;;;;;;;;12.60;99.90;;;;;;5044558;28;19931;-88
2021/11/01 11:50:08;;;;;;;;;;;12.60;99.90;;;;;;5041730;28;19921;-81
2021/11/01 11:52:35;;;;;;;;;;;12.60;99.90;;;;;;5046073;28;20302;-80
2021/11/01 11:55:06;;;;;;;;;;;12.70;99.90;;;;;;5046682;28;20389;-79
2021/11/01 11:57:35;;;;;;;;;;;12.70;99.90;;;;;;5043377;28;19929;-79
2021/11/01 12:00:03;;;;;;;;;;;12.60;99.90;;;;;;5042426;28;20339;-77
2021/11/01 12:02:38;;;;;;;;;;;12.70;99.90;;;;;;5056062;28;19920;-78
2021/11/01 12:05:28;;;;;;;;;;;12.70;99.90;;;;;;5053139;28;19921;-79
2021/11/01 12:08:01;;;;;;;;;;;12.70;99.90;;;;;;5033489;28;19927;-80
2021/11/01 12:11:19;;;;;;;;;;;12.70;99.90;;;;;;5051268;28;20375;-82
2021/11/01 12:18:36;;;;;;;;;;;12.80;99.90;;;;;;5037757;28;20120;-80
2021/11/01 12:21:02;;;;;;;;;;;12.70;99.90;;;;;;5039306;28;20011;-80
2021/11/01 12:23:37;;;;;;;;;;;12.80;99.90;;;;;;5037682;28;20025;-81
2021/11/01 12:26:07;;;;;;;;;;;12.80;99.90;;;;;;5044472;28;19917;-82
2021/11/01 12:28:33;;;;;;;;;;;12.80;99.90;;;;;;5040992;28;19916;-79
2021/11/01 12:30:58;;;;;;;;;;;12.90;99.90;;;;;;5042826;28;19913;-82
2021/11/01 12:33:25;;;;;;;;;;;12.90;99.90;;;;;;5039098;28;20267;-81
2021/11/01 12:35:55;;;;;;;;;;;12.90;99.90;;;;;;5040319;28;19927;-81
2021/11/01 12:38:30;;;;;;;;;;;13.00;99.90;;;;;;5047918;28;19970;-80
2021/11/01 12:41:06;;;;;;;;;;;13.00;99.90;;;;;;5038167;28;19921;-83
2021/11/01 12:59:40;;;;;;;;;;;13.10;99.90;;;;;;5045738;28;19920;-81
2021/11/01 13:02:08;;;;;;;;;;;13.10;99.90;;;;;;5046905;28;20764;-81
2021/11/01 13:04:36;;;;;;;;;;;13.00;99.90;;;;;;5045416;28;20004;-79
2021/11/01 13:07:29;;;;;;;;;;;13.00;99.90;;;;;;5043934;28;19924;-78
2021/11/01 13:09:55;;;;;;;;;;;12.90;99.90;;;;;;5045201;28;19944;-81
2021/11/01 13:20:22;;;;;;;;;;;13.00;99.90;;;;;;5045553;28;19959;-78
2021/11/01 13:22:50;;;;;;;;;;;13.00;99.90;;;;;;5046244;28;19931;-80
2021/11/01 13:25:39;;;;;;;;;;;12.90;99.90;;;;;;5046875;28;19921;-80
2021/11/01 13:28:24;;;;;;;;;;;12.90;99.90;;;;;;5060131;28;20011;-82
2021/11/01 13:38:52;;;;;;;;;;;12.40;99.90;;;;;;5041190;28;20311;-81
2021/11/01 13:41:23;;;;;;;;;;;12.30;99.90;;;;;;5038044;28;19921;-80
2021/11/01 13:43:50;;;;;;;;;;;12.20;99.90;;;;;;5046717;28;20011;-83
2021/11/01 13:46:16;;;;;;;;;;;12.20;99.90;;;;;;5041668;28;19921;-82
2021/11/01 13:48:42;;;;;;;;;;;12.20;99.90;;;;;;5046087;28;20546;-82
2021/11/01 13:51:10;;;;;;;;;;;12.20;99.90;;;;;;5053310;28;19921;-80
2021/11/01 13:53:45;;;;;;;;;;;12.20;99.90;;;;;;5048858;28;20244;-82
2021/11/01 13:59:00;;;;;;;;;;;12.30;99.90;;;;;;5049856;28;19931;-83
2021/11/01 14:02:02;;;;;;;;;;;12.40;99.90;;;;;;5052427;28;19916;-78
2021/11/01 14:12:46;;;;;;;;;;;12.60;99.90;;;;;;5041883;28;19974;-81
2021/11/01 14:28:44;;;;;;;;;;;12.30;99.90;;;;;;5044034;28;19931;-79
2021/11/01 15:01:03;;;;;;;;;;;11.70;99.90;;;;;;5044082;28;20417;-79
2021/11/01 15:19:20;;;;;;;;;;;11.50;99.90;;;;;;5042357;28;20302;-80
2021/11/01 15:21:29;;;;;;;;;;;11.40;99.90;;;;;;5036225;28;20247;-81
2021/11/01 15:39:23;;;;;;;;;;;11.40;99.90;;;;;;5039187;28;19918;-80
2021/11/01 16:17:22;;;;;;;;;;;10.20;99.90;;;;;;5046466;28;19936;-79
2021/11/01 16:19:52;;;;;;;;;;;10.10;99.90;;;;;;5040395;28;19921;-78
2021/11/01 16:22:19;;;;;;;;;;;10.00;99.90;;;;;;5041679;28;19992;-78
2021/11/01 16:24:48;;;;;;;;;;;9.90;99.90;;;;;;5045659;28;19921;-79
2021/11/01 16:27:16;;;;;;;;;;;9.90;99.90;;;;;;5044517;28;19916;-79
2021/11/01 16:30:05;;;;;;;;;;;9.90;99.90;;;;;;5044865;28;20549;-79
2021/11/01 16:32:39;;;;;;;;;;;9.80;99.90;;;;;;5048291;28;19999;-77
2021/11/01 16:35:06;;;;;;;;;;;9.80;99.90;;;;;;5046392;28;19920;-79
2021/11/01 16:40:15;;;;;;;;;;;9.80;99.90;;;;;;5042409;28;20386;-79
2021/11/01 16:42:54;;;;;;;;;;;9.80;99.90;;;;;;5029531;22;20020;-80
2021/11/01 16:45:33;;;;;;;;;;;9.80;99.90;;;;;;5013728;28;19964;-79
2021/11/01 16:48:00;;;;;;;;;;;9.80;99.90;;;;;;5014871;28;19928;-79
2021/11/01 16:50:26;;;;;;;;;;;9.70;99.90;;;;;;5019095;28;19917;-80
2021/11/01 16:52:52;;;;;;;;;;;9.70;99.90;;;;;;5014021;28;20481;-80
2021/11/01 16:55:23;;;;;;;;;;;9.60;99.90;;;;;;5015740;28;19943;-78
2021/11/01 16:57:53;;;;;;;;;;;9.50;99.90;;;;;;5019239;28;19944;-79
2021/11/01 17:24:10;;;;;;;;;;;9.00;99.90;;;;;;5021017;28;20374;-79
2021/11/01 17:29:43;;;;;;;;;;;9.00;99.90;;;;;;5020687;28;19929;-79
2021/11/01 17:35:12;;;;;;;;;;;8.90;99.90;;;;;;5016793;28;20608;-79
2021/11/01 17:37:58;;;;;;;;;;;8.90;99.90;;;;;;5011436;28;19925;-79
2021/11/01 18:40:45;;;;;;;;;;;8.30;99.90;;;;;;5022642;28;19967;-83
2021/11/01 18:51:34;;;;;;;;;;;8.10;99.90;;;;;;5033681;28;19929;-79
2021/11/01 18:54:18;;;;;;;;;;;8.20;99.90;;;;;;5031680;28;19953;-79
2021/11/01 18:56:48;;;;;;;;;;;8.20;99.90;;;;;;5031709;28;20248;-78
2021/11/01 18:59:15;;;;;;;;;;;8.20;99.90;;;;;;5024705;28;20579;-80
2021/11/01 19:01:48;;;;;;;;;;;8.20;99.90;;;;;;5022517;28;20312;-79
2021/11/01 19:04:19;;;;;;;;;;;8.20;99.90;;;;;;5027031;28;19921;-79
2021/11/01 19:06:53;;;;;;;;;;;8.20;99.90;;;;;;5030526;28;19917;-79
2021/11/01 20:04:34;;;;;;;;;;;8.00;99.90;;;;;;5021148;28;19975;-77
2021/11/01 21:26:23;;;;;;;;;;;7.70;99.90;;;;;;5021143;28;19928;-78
2021/11/01 21:28:49;;;;;;;;;;;7.70;99.90;;;;;;5022026;28;19921;-78
2021/11/01 21:31:15;;;;;;;;;;;7.60;99.90;;;;;;5022692;28;20028;-77
2021/11/01 21:33:43;;;;;;;;;;;7.60;99.90;;;;;;5021123;28;20060;-78
2021/11/01 21:36:12;;;;;;;;;;;7.60;99.90;;;;;;5014895;28;20007;-78
2021/11/01 21:38:37;;;;;;;;;;;7.60;99.90;;;;;;5020795;28;20334;-77
2021/11/01 21:41:03;;;;;;;;;;;7.70;99.90;;;;;;5035002;28;19918;-78
2021/11/01 21:43:29;;;;;;;;;;;7.60;99.90;;;;;;5016072;28;19944;-77
2021/11/01 21:45:55;;;;;;;;;;;7.60;99.90;;;;;;5015684;28;20000;-77
2021/11/01 21:48:21;;;;;;;;;;;7.60;99.90;;;;;;5027257;28;20004;-78
2021/11/01 21:50:47;;;;;;;;;;;7.50;99.90;;;;;;5025375;28;19913;-78
2021/11/01 21:53:13;;;;;;;;;;;7.50;99.90;;;;;;5025414;28;19917;-78
2021/11/01 21:55:40;;;;;;;;;;;7.50;99.90;;;;;;5025632;28;19967;-78
2021/11/01 22:19:56;;;;;;;;;;;7.40;99.90;;;;;;5023813;28;19944;-78
2021/11/01 22:26:03;;;;;;;;;;;7.40;99.90;;;;;;5029890;28;19921;-78
2021/11/01 22:41:33;;;;;;;;;;;7.30;99.90;;;;;;5029647;28;19968;-78
2021/11/01 22:46:54;;;;;;;;;;;7.30;99.90;;;;;;5019183;28;20563;-78
2021/11/01 22:57:32;;;;;;;;;;;7.20;99.90;;;;;;5026294;28;20248;-79
2021/11/01 23:00:00;;;;;;;;;;;7.10;99.90;;;;;;5028875;28;19921;-78
2021/11/01 23:02:26;;;;;;;;;;;7.10;99.90;;;;;;5023900;28;19987;-78
2021/11/01 23:05:11;;;;;;;;;;;7.10;99.90;;;;;;5023374;28;19918;-78
2021/11/01 23:32:15;;;;;;;;;;;7.00;99.90;;;;;;5023791;28;19928;-77
2021/11/01 23:34:40;;;;;;;;;;;7.00;99.90;;;;;;5022483;28;19921;-78
2021/11/01 23:37:06;;;;;;;;;;;7.00;99.90;;;;;;5022534;28;20324;-78
2021/11/01 23:39:32;;;;;;;;;;;7.00;99.90;;;;;;5026340;28;20211;-77
2021/11/01 23:41:57;;;;;;;;;;;7.00;99.90;;;;;;5027160;28;19925;-78
2021/11/01 23:44:23;;;;;;;;;;;7.00;99.90;;;;;;5026317;28;19918;-78
2021/11/01 23:46:49;;;;;;;;;;;7.00;99.90;;;;;;5037801;28;19928;-78
2021/11/01 23:49:15;;;;;;;;;;;6.90;99.90;;;;;;5023067;28;20012;-77
2021/11/01 23:51:48;;;;;;;;;;;6.90;99.90;;;;;;5027382;28;19954;-78
2021/11/01 23:54:37;;;;;;;;;;;6.90;99.90;;;;;;5023163;28;19921;-78
2021/11/01 23:57:03;;;;;;;;;;;6.90;99.90;;;;;;5022332;28;20335;-78
2021/11/01 23:59:28;;;;;;;;;;;6.90;99.90;;;;;;5026585;28;19921;-77
